sensor_id;sensor_type;location;lat;lon;timestamp;P1;durP1;ratioP1;P2;durP2;ratioP2
9821;SDS011;4950;46.042;14.472;2023-04-01T00:01:25;2.33;;;1.25;;
9821;SDS011;4950;46.042;14.472;2023-04-01T00:03:52;1.40;;;1.27;;
9821;SDS011;4950;46.042;14.472;2023-04-01T00:06:21;3.20;;;1.58;;
9821;SDS011;4950;46.042;14.472;2023-04-01T00:08:48;2.53;;;1.45;;
9821;SDS011;4950;46.042;14.472;2023-04-01T00:11:15;2.65;;;1.52;;
9821;SDS011;4950;46.042;14.472;2023-04-01T00:13:43;1.52;;;1.30;;
9821;SDS011;4950;46.042;14.472;2023-04-01T00:16:10;2.63;;;1.40;;
9821;SDS011;4950;46.042;14.472;2023-04-01T00:18:37;2.92;;;1.35;;
9821;SDS011;4950;46.042;14.472;2023-04-01T00:21:04;4.25;;;1.48;;
9821;SDS011;4950;46.042;14.472;2023-04-01T00:23:32;2.50;;;1.48;;
9821;SDS011;4950;46.042;14.472;2023-04-01T00:25:59;3.10;;;1.48;;
9821;SDS011;4950;46.042;14.472;2023-04-01T00:28:26;1.65;;;1.30;;
9821;SDS011;4950;46.042;14.472;2023-04-01T00:30:53;3.80;;;1.58;;
9821;SDS011;4950;46.042;14.472;2023-04-01T00:33:20;3.53;;;1.85;;
9821;SDS011;4950;46.042;14.472;2023-04-01T00:35:46;2.50;;;1.50;;
9821;SDS011;4950;46.042;14.472;2023-04-01T00:38:13;3.47;;;1.85;;
9821;SDS011;4950;46.042;14.472;2023-04-01T00:40:44;2.70;;;1.67;;
9821;SDS011;4950;46.042;14.472;2023-04-01T00:43:12;3.47;;;1.10;;
9821;SDS011;4950;46.042;14.472;2023-04-01T00:45:40;2.28;;;1.30;;
9821;SDS011;4950;46.042;14.472;2023-04-01T00:48:09;1.20;;;1.10;;
9821;SDS011;4950;46.042;14.472;2023-04-01T00:50:38;3.00;;;1.50;;
9821;SDS011;4950;46.042;14.472;2023-04-01T00:53:08;3.22;;;1.58;;
9821;SDS011;4950;46.042;14.472;2023-04-01T00:55:37;2.42;;;1.30;;
9821;SDS011;4950;46.042;14.472;2023-04-01T00:58:13;1.73;;;1.45;;
9821;SDS011;4950;46.042;14.472;2023-04-01T01:00:43;1.33;;;1.23;;
9821;SDS011;4950;46.042;14.472;2023-04-01T01:03:12;3.55;;;1.60;;
9821;SDS011;4950;46.042;14.472;2023-04-01T01:05:45;2.78;;;1.02;;
9821;SDS011;4950;46.042;14.472;2023-04-01T01:08:25;2.08;;;1.20;;
9821;SDS011;4950;46.042;14.472;2023-04-01T01:11:03;2.35;;;1.15;;
9821;SDS011;4950;46.042;14.472;2023-04-01T01:13:36;3.60;;;1.33;;
9821;SDS011;4950;46.042;14.472;2023-04-01T01:16:10;1.88;;;1.30;;
9821;SDS011;4950;46.042;14.472;2023-04-01T01:18:47;5.50;;;1.45;;
9821;SDS011;4950;46.042;14.472;2023-04-01T01:24:25;2.20;;;1.50;;
9821;SDS011;4950;46.042;14.472;2023-04-01T01:27:09;2.00;;;1.30;;
9821;SDS011;4950;46.042;14.472;2023-04-01T01:29:47;3.00;;;1.53;;
9821;SDS011;4950;46.042;14.472;2023-04-01T01:32:39;2.28;;;1.35;;
9821;SDS011;4950;46.042;14.472;2023-04-01T01:35:21;1.50;;;1.10;;
9821;SDS011;4950;46.042;14.472;2023-04-01T01:37:51;1.33;;;1.20;;
9821;SDS011;4950;46.042;14.472;2023-04-01T01:40:21;1.65;;;1.55;;
9821;SDS011;4950;46.042;14.472;2023-04-01T01:42:51;1.58;;;1.30;;
9821;SDS011;4950;46.042;14.472;2023-04-01T01:45:21;2.85;;;1.10;;
9821;SDS011;4950;46.042;14.472;2023-04-01T01:47:51;2.63;;;1.63;;
9821;SDS011;4950;46.042;14.472;2023-04-01T01:50:18;1.90;;;1.38;;
9821;SDS011;4950;46.042;14.472;2023-04-01T01:52:47;2.13;;;1.10;;
9821;SDS011;4950;46.042;14.472;2023-04-01T01:55:24;2.13;;;1.05;;
9821;SDS011;4950;46.042;14.472;2023-04-01T01:57:53;1.77;;;1.20;;
9821;SDS011;4950;46.042;14.472;2023-04-01T02:00:23;1.48;;;1.10;;
9821;SDS011;4950;46.042;14.472;2023-04-01T02:02:51;2.67;;;1.10;;
9821;SDS011;4950;46.042;14.472;2023-04-01T02:05:19;2.22;;;1.30;;
9821;SDS011;4950;46.042;14.472;2023-04-01T02:07:52;2.97;;;1.30;;
9821;SDS011;4950;46.042;14.472;2023-04-01T02:10:24;3.47;;;1.67;;
9821;SDS011;4950;46.042;14.472;2023-04-01T02:12:53;3.75;;;1.80;;
9821;SDS011;4950;46.042;14.472;2023-04-01T02:15:26;3.63;;;1.90;;
9821;SDS011;4950;46.042;14.472;2023-04-01T02:17:56;2.83;;;1.67;;
9821;SDS011;4950;46.042;14.472;2023-04-01T02:20:24;3.10;;;1.75;;
9821;SDS011;4950;46.042;14.472;2023-04-01T02:22:55;1.88;;;1.63;;
9821;SDS011;4950;46.042;14.472;2023-04-01T02:27:52;2.55;;;1.85;;
9821;SDS011;4950;46.042;14.472;2023-04-01T02:32:49;4.97;;;2.95;;
9821;SDS011;4950;46.042;14.472;2023-04-01T02:35:16;7.20;;;3.30;;
9821;SDS011;4950;46.042;14.472;2023-04-01T02:37:45;6.60;;;3.03;;
9821;SDS011;4950;46.042;14.472;2023-04-01T02:40:16;5.80;;;2.70;;
9821;SDS011;4950;46.042;14.472;2023-04-01T02:42:43;5.25;;;2.28;;
9821;SDS011;4950;46.042;14.472;2023-04-01T02:45:10;4.68;;;2.80;;
9821;SDS011;4950;46.042;14.472;2023-04-01T02:47:38;5.05;;;2.50;;
9821;SDS011;4950;46.042;14.472;2023-04-01T02:50:05;4.80;;;2.35;;
9821;SDS011;4950;46.042;14.472;2023-04-01T02:52:33;4.00;;;2.13;;
9821;SDS011;4950;46.042;14.472;2023-04-01T02:55:01;3.90;;;2.22;;
9821;SDS011;4950;46.042;14.472;2023-04-01T02:57:28;3.90;;;2.10;;
9821;SDS011;4950;46.042;14.472;2023-04-01T02:59:55;4.55;;;2.05;;
9821;SDS011;4950;46.042;14.472;2023-04-01T03:02:21;3.55;;;2.13;;
9821;SDS011;4950;46.042;14.472;2023-04-01T03:04:48;4.82;;;2.53;;
9821;SDS011;4950;46.042;14.472;2023-04-01T03:07:15;3.80;;;2.05;;
9821;SDS011;4950;46.042;14.472;2023-04-01T03:09:41;6.95;;;2.55;;
9821;SDS011;4950;46.042;14.472;2023-04-01T03:12:10;4.82;;;2.80;;
9821;SDS011;4950;46.042;14.472;2023-04-01T03:14:36;3.42;;;2.40;;
9821;SDS011;4950;46.042;14.472;2023-04-01T03:17:03;4.35;;;2.22;;
9821;SDS011;4950;46.042;14.472;2023-04-01T03:19:30;3.08;;;2.20;;
9821;SDS011;4950;46.042;14.472;2023-04-01T03:21:57;4.28;;;2.20;;
9821;SDS011;4950;46.042;14.472;2023-04-01T03:24:23;3.25;;;2.03;;
9821;SDS011;4950;46.042;14.472;2023-04-01T03:26:50;3.00;;;2.00;;
9821;SDS011;4950;46.042;14.472;2023-04-01T03:29:18;3.10;;;2.40;;
9821;SDS011;4950;46.042;14.472;2023-04-01T03:31:45;4.18;;;2.35;;
9821;SDS011;4950;46.042;14.472;2023-04-01T03:34:11;3.10;;;1.98;;
9821;SDS011;4950;46.042;14.472;2023-04-01T03:36:38;3.72;;;2.70;;
9821;SDS011;4950;46.042;14.472;2023-04-01T03:39:05;6.53;;;3.35;;
9821;SDS011;4950;46.042;14.472;2023-04-01T03:41:31;5.55;;;2.75;;
9821;SDS011;4950;46.042;14.472;2023-04-01T03:43:59;5.18;;;3.42;;
9821;SDS011;4950;46.042;14.472;2023-04-01T03:46:27;5.85;;;3.55;;
9821;SDS011;4950;46.042;14.472;2023-04-01T03:48:53;5.50;;;3.92;;
9821;SDS011;4950;46.042;14.472;2023-04-01T03:51:20;6.22;;;4.07;;
9821;SDS011;4950;46.042;14.472;2023-04-01T03:53:47;7.40;;;4.70;;
9821;SDS011;4950;46.042;14.472;2023-04-01T03:56:15;8.48;;;4.47;;
9821;SDS011;4950;46.042;14.472;2023-04-01T03:58:42;6.90;;;4.57;;
9821;SDS011;4950;46.042;14.472;2023-04-01T04:01:15;9.30;;;5.72;;
9821;SDS011;4950;46.042;14.472;2023-04-01T04:03:47;7.30;;;4.72;;
9821;SDS011;4950;46.042;14.472;2023-04-01T04:06:15;8.73;;;5.47;;
9821;SDS011;4950;46.042;14.472;2023-04-01T04:08:43;7.80;;;5.20;;
9821;SDS011;4950;46.042;14.472;2023-04-01T04:11:10;7.50;;;5.07;;
9821;SDS011;4950;46.042;14.472;2023-04-01T04:13:37;6.90;;;4.63;;
9821;SDS011;4950;46.042;14.472;2023-04-01T04:16:04;7.32;;;4.95;;
9821;SDS011;4950;46.042;14.472;2023-04-01T04:18:31;8.45;;;5.10;;
9821;SDS011;4950;46.042;14.472;2023-04-01T04:21:00;7.43;;;4.70;;
9821;SDS011;4950;46.042;14.472;2023-04-01T04:23:26;6.78;;;4.70;;
9821;SDS011;4950;46.042;14.472;2023-04-01T04:25:55;7.75;;;4.75;;
9821;SDS011;4950;46.042;14.472;2023-04-01T04:28:23;10.32;;;5.43;;
9821;SDS011;4950;46.042;14.472;2023-04-01T04:30:51;7.75;;;5.38;;
9821;SDS011;4950;46.042;14.472;2023-04-01T04:33:18;8.65;;;5.60;;
9821;SDS011;4950;46.042;14.472;2023-04-01T04:35:44;7.70;;;5.70;;
9821;SDS011;4950;46.042;14.472;2023-04-01T04:38:13;8.48;;;5.40;;
9821;SDS011;4950;46.042;14.472;2023-04-01T04:40:40;7.20;;;4.68;;
9821;SDS011;4950;46.042;14.472;2023-04-01T04:43:08;7.40;;;4.50;;
9821;SDS011;4950;46.042;14.472;2023-04-01T04:45:36;8.25;;;4.75;;
9821;SDS011;4950;46.042;14.472;2023-04-01T04:48:04;7.95;;;4.80;;
9821;SDS011;4950;46.042;14.472;2023-04-01T04:50:31;7.00;;;4.60;;
9821;SDS011;4950;46.042;14.472;2023-04-01T04:52:57;8.88;;;4.70;;
9821;SDS011;4950;46.042;14.472;2023-04-01T04:55:25;7.68;;;5.10;;
9821;SDS011;4950;46.042;14.472;2023-04-01T04:57:52;10.85;;;5.78;;
9821;SDS011;4950;46.042;14.472;2023-04-01T05:00:19;9.35;;;5.63;;
9821;SDS011;4950;46.042;14.472;2023-04-01T05:02:45;11.23;;;6.43;;
9821;SDS011;4950;46.042;14.472;2023-04-01T05:05:12;10.45;;;6.80;;
9821;SDS011;4950;46.042;14.472;2023-04-01T05:07:39;17.77;;;7.65;;
9821;SDS011;4950;46.042;14.472;2023-04-01T05:10:06;11.38;;;7.15;;
9821;SDS011;4950;46.042;14.472;2023-04-01T05:12:34;12.45;;;7.50;;
9821;SDS011;4950;46.042;14.472;2023-04-01T05:15:03;24.88;;;8.98;;
9821;SDS011;4950;46.042;14.472;2023-04-01T05:17:31;23.05;;;9.20;;
9821;SDS011;4950;46.042;14.472;2023-04-01T05:19:58;62.33;;;9.93;;
9821;SDS011;4950;46.042;14.472;2023-04-01T05:22:24;33.17;;;9.43;;
9821;SDS011;4950;46.042;14.472;2023-04-01T05:24:51;48.97;;;9.75;;
9821;SDS011;4950;46.042;14.472;2023-04-01T05:27:18;40.28;;;8.77;;
9821;SDS011;4950;46.042;14.472;2023-04-01T05:29:46;136.10;;;10.88;;
9821;SDS011;4950;46.042;14.472;2023-04-01T05:32:12;75.88;;;8.25;;
9821;SDS011;4950;46.042;14.472;2023-04-01T05:34:40;16.35;;;7.75;;
9821;SDS011;4950;46.042;14.472;2023-04-01T05:37:06;10.63;;;7.00;;
9821;SDS011;4950;46.042;14.472;2023-04-01T05:39:35;12.40;;;7.00;;
9821;SDS011;4950;46.042;14.472;2023-04-01T05:42:02;12.40;;;7.03;;
9821;SDS011;4950;46.042;14.472;2023-04-01T05:44:29;10.70;;;6.35;;
9821;SDS011;4950;46.042;14.472;2023-04-01T05:46:57;11.70;;;6.88;;
9821;SDS011;4950;46.042;14.472;2023-04-01T05:49:24;9.77;;;6.20;;
9821;SDS011;4950;46.042;14.472;2023-04-01T05:51:51;7.22;;;4.60;;
9821;SDS011;4950;46.042;14.472;2023-04-01T05:54:17;6.65;;;4.35;;
9821;SDS011;4950;46.042;14.472;2023-04-01T05:56:44;6.38;;;3.65;;
9821;SDS011;4950;46.042;14.472;2023-04-01T05:59:11;7.35;;;4.30;;
9821;SDS011;4950;46.042;14.472;2023-04-01T06:01:39;9.05;;;4.68;;
9821;SDS011;4950;46.042;14.472;2023-04-01T06:04:09;8.27;;;4.72;;
9821;SDS011;4950;46.042;14.472;2023-04-01T06:06:39;8.63;;;4.50;;
9821;SDS011;4950;46.042;14.472;2023-04-01T06:09:10;8.93;;;4.97;;
9821;SDS011;4950;46.042;14.472;2023-04-01T06:11:42;17.33;;;5.80;;
9821;SDS011;4950;46.042;14.472;2023-04-01T06:14:19;9.75;;;5.50;;
9821;SDS011;4950;46.042;14.472;2023-04-01T06:17:00;9.45;;;5.88;;
9821;SDS011;4950;46.042;14.472;2023-04-01T06:19:41;9.73;;;5.63;;
9821;SDS011;4950;46.042;14.472;2023-04-01T06:28:23;14.43;;;5.55;;
9821;SDS011;4950;46.042;14.472;2023-04-01T06:31:10;10.35;;;5.78;;
9821;SDS011;4950;46.042;14.472;2023-04-01T06:33:50;9.88;;;5.68;;
9821;SDS011;4950;46.042;14.472;2023-04-01T06:39:28;8.15;;;5.25;;
9821;SDS011;4950;46.042;14.472;2023-04-01T06:42:11;9.02;;;4.72;;
9821;SDS011;4950;46.042;14.472;2023-04-01T06:44:49;6.97;;;4.20;;
9821;SDS011;4950;46.042;14.472;2023-04-01T06:47:28;6.65;;;4.07;;
9821;SDS011;4950;46.042;14.472;2023-04-01T06:50:06;12.45;;;5.05;;
9821;SDS011;4950;46.042;14.472;2023-04-01T06:52:46;10.45;;;6.18;;
9821;SDS011;4950;46.042;14.472;2023-04-01T06:55:24;10.27;;;6.25;;
9821;SDS011;4950;46.042;14.472;2023-04-01T06:57:55;9.75;;;6.13;;
9821;SDS011;4950;46.042;14.472;2023-04-01T07:00:27;9.32;;;5.93;;
9821;SDS011;4950;46.042;14.472;2023-04-01T07:02:59;9.98;;;5.55;;
9821;SDS011;4950;46.042;14.472;2023-04-01T07:05:32;9.70;;;6.00;;
9821;SDS011;4950;46.042;14.472;2023-04-01T07:08:01;9.60;;;5.65;;
9821;SDS011;4950;46.042;14.472;2023-04-01T07:10:33;8.93;;;5.15;;
9821;SDS011;4950;46.042;14.472;2023-04-01T07:13:10;10.57;;;5.32;;
9821;SDS011;4950;46.042;14.472;2023-04-01T07:15:42;9.48;;;5.38;;
9821;SDS011;4950;46.042;14.472;2023-04-01T07:18:22;6.88;;;4.25;;
9821;SDS011;4950;46.042;14.472;2023-04-01T07:20:54;7.85;;;4.70;;
9821;SDS011;4950;46.042;14.472;2023-04-01T07:23:23;7.38;;;3.72;;
9821;SDS011;4950;46.042;14.472;2023-04-01T07:28:22;5.80;;;3.55;;
9821;SDS011;4950;46.042;14.472;2023-04-01T07:30:52;5.88;;;2.40;;
9821;SDS011;4950;46.042;14.472;2023-04-01T07:33:28;4.88;;;2.30;;
9821;SDS011;4950;46.042;14.472;2023-04-01T07:36:03;3.78;;;2.05;;
9821;SDS011;4950;46.042;14.472;2023-04-01T07:38:39;3.08;;;1.98;;
9821;SDS011;4950;46.042;14.472;2023-04-01T07:41:19;3.40;;;1.98;;
9821;SDS011;4950;46.042;14.472;2023-04-01T07:43:57;2.47;;;1.95;;
9821;SDS011;4950;46.042;14.472;2023-04-01T07:46:41;4.35;;;2.40;;
9821;SDS011;4950;46.042;14.472;2023-04-01T07:49:17;3.85;;;2.40;;
9821;SDS011;4950;46.042;14.472;2023-04-01T07:51:49;5.60;;;2.67;;
9821;SDS011;4950;46.042;14.472;2023-04-01T07:54:26;4.60;;;2.20;;
9821;SDS011;4950;46.042;14.472;2023-04-01T07:57:02;6.55;;;2.92;;
9821;SDS011;4950;46.042;14.472;2023-04-01T07:59:36;2.22;;;1.60;;
9821;SDS011;4950;46.042;14.472;2023-04-01T08:02:15;3.08;;;1.88;;
9821;SDS011;4950;46.042;14.472;2023-04-01T08:05:00;4.22;;;2.17;;
9821;SDS011;4950;46.042;14.472;2023-04-01T08:07:40;4.20;;;2.08;;
9821;SDS011;4950;46.042;14.472;2023-04-01T08:10:18;4.15;;;2.20;;
9821;SDS011;4950;46.042;14.472;2023-04-01T08:12:54;3.17;;;2.20;;
9821;SDS011;4950;46.042;14.472;2023-04-01T08:15:32;7.50;;;2.95;;
9821;SDS011;4950;46.042;14.472;2023-04-01T08:18:08;5.22;;;2.97;;
9821;SDS011;4950;46.042;14.472;2023-04-01T08:20:50;5.15;;;2.85;;
9821;SDS011;4950;46.042;14.472;2023-04-01T08:23:22;4.28;;;2.88;;
9821;SDS011;4950;46.042;14.472;2023-04-01T08:25:52;3.30;;;2.08;;
9821;SDS011;4950;46.042;14.472;2023-04-01T08:28:25;3.95;;;2.25;;
9821;SDS011;4950;46.042;14.472;2023-04-01T08:30:57;6.63;;;3.03;;
9821;SDS011;4950;46.042;14.472;2023-04-01T08:33:27;5.25;;;2.35;;
9821;SDS011;4950;46.042;14.472;2023-04-01T08:35:56;5.15;;;2.40;;
9821;SDS011;4950;46.042;14.472;2023-04-01T08:38:29;4.05;;;2.00;;
9821;SDS011;4950;46.042;14.472;2023-04-01T08:41:00;4.47;;;2.67;;
9821;SDS011;4950;46.042;14.472;2023-04-01T08:43:38;7.15;;;2.80;;
9821;SDS011;4950;46.042;14.472;2023-04-01T08:46:19;4.55;;;2.72;;
9821;SDS011;4950;46.042;14.472;2023-04-01T08:49:01;3.47;;;2.33;;
9821;SDS011;4950;46.042;14.472;2023-04-01T08:54:40;8.82;;;2.95;;
9821;SDS011;4950;46.042;14.472;2023-04-01T08:57:15;7.55;;;3.00;;
9821;SDS011;4950;46.042;14.472;2023-04-01T08:59:59;5.40;;;2.92;;
9821;SDS011;4950;46.042;14.472;2023-04-01T09:02:45;4.47;;;2.78;;
9821;SDS011;4950;46.042;14.472;2023-04-01T09:05:30;4.75;;;2.47;;
9821;SDS011;4950;46.042;14.472;2023-04-01T09:08:19;9.50;;;3.15;;
9821;SDS011;4950;46.042;14.472;2023-04-01T09:11:08;5.55;;;2.35;;
9821;SDS011;4950;46.042;14.472;2023-04-01T09:13:48;7.70;;;3.05;;
9821;SDS011;4950;46.042;14.472;2023-04-01T09:16:31;6.50;;;2.80;;
9821;SDS011;4950;46.042;14.472;2023-04-01T09:19:21;11.57;;;3.30;;
9821;SDS011;4950;46.042;14.472;2023-04-01T09:25:02;5.25;;;2.88;;
9821;SDS011;4950;46.042;14.472;2023-04-01T09:27:52;3.80;;;2.30;;
9821;SDS011;4950;46.042;14.472;2023-04-01T09:30:31;5.93;;;2.85;;
9821;SDS011;4950;46.042;14.472;2023-04-01T09:33:15;3.95;;;2.28;;
9821;SDS011;4950;46.042;14.472;2023-04-01T09:36:07;5.88;;;2.60;;
9821;SDS011;4950;46.042;14.472;2023-04-01T09:38:49;6.53;;;2.22;;
9821;SDS011;4950;46.042;14.472;2023-04-01T09:41:27;5.83;;;2.30;;
9821;SDS011;4950;46.042;14.472;2023-04-01T09:44:03;3.22;;;2.20;;
9821;SDS011;4950;46.042;14.472;2023-04-01T09:46:35;5.45;;;2.20;;
9821;SDS011;4950;46.042;14.472;2023-04-01T09:49:20;8.18;;;3.40;;
9821;SDS011;4950;46.042;14.472;2023-04-01T09:52:20;7.25;;;3.17;;
9821;SDS011;4950;46.042;14.472;2023-04-01T09:54:59;11.40;;;2.72;;
9821;SDS011;4950;46.042;14.472;2023-04-01T10:00:50;6.93;;;3.10;;
9821;SDS011;4950;46.042;14.472;2023-04-01T10:03:54;6.28;;;2.72;;
9821;SDS011;4950;46.042;14.472;2023-04-01T10:06:58;6.28;;;2.80;;
9821;SDS011;4950;46.042;14.472;2023-04-01T10:18:53;8.77;;;5.28;;
9821;SDS011;4950;46.042;14.472;2023-04-01T10:24:46;9.45;;;4.80;;
9821;SDS011;4950;46.042;14.472;2023-04-01T10:27:39;8.73;;;4.95;;
9821;SDS011;4950;46.042;14.472;2023-04-01T10:30:30;7.32;;;4.45;;
9821;SDS011;4950;46.042;14.472;2023-04-01T10:33:19;10.55;;;5.00;;
9821;SDS011;4950;46.042;14.472;2023-04-01T10:39:20;6.47;;;4.25;;
9821;SDS011;4950;46.042;14.472;2023-04-01T10:45:21;19.35;;;4.00;;
9821;SDS011;4950;46.042;14.472;2023-04-01T10:48:41;6.32;;;3.60;;
9821;SDS011;4950;46.042;14.472;2023-04-01T10:51:38;8.07;;;3.55;;
9821;SDS011;4950;46.042;14.472;2023-04-01T10:54:36;7.10;;;3.50;;
9821;SDS011;4950;46.042;14.472;2023-04-01T10:57:16;7.13;;;4.00;;
9821;SDS011;4950;46.042;14.472;2023-04-01T11:06:31;6.65;;;3.47;;
9821;SDS011;4950;46.042;14.472;2023-04-01T11:12:41;5.57;;;3.80;;
9821;SDS011;4950;46.042;14.472;2023-04-01T11:18:48;8.98;;;4.05;;
9821;SDS011;4950;46.042;14.472;2023-04-01T11:21:58;5.72;;;2.95;;
9821;SDS011;4950;46.042;14.472;2023-04-01T11:24:43;6.07;;;3.60;;
9821;SDS011;4950;46.042;14.472;2023-04-01T11:27:33;10.13;;;4.20;;
9821;SDS011;4950;46.042;14.472;2023-04-01T11:30:20;7.38;;;3.63;;
9821;SDS011;4950;46.042;14.472;2023-04-01T11:32:54;8.23;;;3.47;;
9821;SDS011;4950;46.042;14.472;2023-04-01T11:35:38;5.35;;;3.28;;
9821;SDS011;4950;46.042;14.472;2023-04-01T11:38:41;8.77;;;4.00;;
9821;SDS011;4950;46.042;14.472;2023-04-01T11:41:19;6.13;;;3.63;;
9821;SDS011;4950;46.042;14.472;2023-04-01T11:44:00;5.05;;;3.10;;
9821;SDS011;4950;46.042;14.472;2023-04-01T11:46:39;6.00;;;3.22;;
9821;SDS011;4950;46.042;14.472;2023-04-01T11:49:25;17.55;;;3.22;;
9821;SDS011;4950;46.042;14.472;2023-04-01T11:52:16;8.73;;;3.15;;
9821;SDS011;4950;46.042;14.472;2023-04-01T11:54:56;8.50;;;2.95;;
9821;SDS011;4950;46.042;14.472;2023-04-01T11:57:42;7.90;;;2.78;;
9821;SDS011;4950;46.042;14.472;2023-04-01T12:00:20;14.63;;;3.88;;
9821;SDS011;4950;46.042;14.472;2023-04-01T12:03:15;8.93;;;3.50;;
9821;SDS011;4950;46.042;14.472;2023-04-01T12:05:54;5.15;;;3.15;;
9821;SDS011;4950;46.042;14.472;2023-04-01T12:08:33;8.77;;;2.88;;
9821;SDS011;4950;46.042;14.472;2023-04-01T12:11:12;6.85;;;2.65;;
9821;SDS011;4950;46.042;14.472;2023-04-01T12:13:46;4.97;;;2.50;;
9821;SDS011;4950;46.042;14.472;2023-04-01T12:16:29;6.72;;;2.58;;
9821;SDS011;4950;46.042;14.472;2023-04-01T12:19:09;5.38;;;2.42;;
9821;SDS011;4950;46.042;14.472;2023-04-01T12:21:45;4.90;;;2.65;;
9821;SDS011;4950;46.042;14.472;2023-04-01T12:27:20;8.35;;;2.70;;
9821;SDS011;4950;46.042;14.472;2023-04-01T12:30:02;13.10;;;2.78;;
9821;SDS011;4950;46.042;14.472;2023-04-01T12:32:46;5.03;;;2.47;;
9821;SDS011;4950;46.042;14.472;2023-04-01T12:35:21;4.00;;;2.10;;
9821;SDS011;4950;46.042;14.472;2023-04-01T12:37:52;3.47;;;1.92;;
9821;SDS011;4950;46.042;14.472;2023-04-01T12:40:35;5.45;;;2.15;;
9821;SDS011;4950;46.042;14.472;2023-04-01T12:43:32;16.05;;;3.25;;
9821;SDS011;4950;46.042;14.472;2023-04-01T12:46:19;4.88;;;2.40;;
9821;SDS011;4950;46.042;14.472;2023-04-01T12:49:10;5.18;;;1.85;;
9821;SDS011;4950;46.042;14.472;2023-04-01T12:51:52;3.92;;;1.83;;
9821;SDS011;4950;46.042;14.472;2023-04-01T13:00:39;4.85;;;1.55;;
9821;SDS011;4950;46.042;14.472;2023-04-01T13:03:21;3.72;;;1.63;;
9821;SDS011;4950;46.042;14.472;2023-04-01T13:09:01;4.93;;;1.67;;
9821;SDS011;4950;46.042;14.472;2023-04-01T13:11:45;2.72;;;1.40;;
9821;SDS011;4950;46.042;14.472;2023-04-01T13:17:17;2.65;;;1.35;;
9821;SDS011;4950;46.042;14.472;2023-04-01T13:19:49;2.97;;;1.65;;
9821;SDS011;4950;46.042;14.472;2023-04-01T13:22:24;3.60;;;1.33;;
9821;SDS011;4950;46.042;14.472;2023-04-01T13:25:14;3.53;;;1.50;;
9821;SDS011;4950;46.042;14.472;2023-04-01T13:27:54;3.67;;;1.60;;
9821;SDS011;4950;46.042;14.472;2023-04-01T13:30:29;4.22;;;1.55;;
9821;SDS011;4950;46.042;14.472;2023-04-01T13:32:59;2.90;;;1.17;;
9821;SDS011;4950;46.042;14.472;2023-04-01T13:35:37;2.35;;;1.00;;
9821;SDS011;4950;46.042;14.472;2023-04-01T13:38:28;1.30;;;0.90;;
9821;SDS011;4950;46.042;14.472;2023-04-01T13:41:10;3.03;;;1.00;;
9821;SDS011;4950;46.042;14.472;2023-04-01T13:43:45;1.13;;;0.95;;
9821;SDS011;4950;46.042;14.472;2023-04-01T13:49:23;1.27;;;0.77;;
9821;SDS011;4950;46.042;14.472;2023-04-01T14:01:12;2.55;;;1.60;;
9821;SDS011;4950;46.042;14.472;2023-04-01T14:03:49;4.15;;;1.70;;
9821;SDS011;4950;46.042;14.472;2023-04-01T14:06:34;2.70;;;1.67;;
9821;SDS011;4950;46.042;14.472;2023-04-01T14:12:09;2.95;;;1.88;;
9821;SDS011;4950;46.042;14.472;2023-04-01T14:14:47;4.65;;;1.80;;
9821;SDS011;4950;46.042;14.472;2023-04-01T14:20:24;3.05;;;1.70;;
9821;SDS011;4950;46.042;14.472;2023-04-01T14:22:58;2.00;;;1.27;;
9821;SDS011;4950;46.042;14.472;2023-04-01T14:25:44;1.77;;;0.95;;
9821;SDS011;4950;46.042;14.472;2023-04-01T14:28:24;1.75;;;1.10;;
9821;SDS011;4950;46.042;14.472;2023-04-01T14:31:04;3.67;;;1.30;;
9821;SDS011;4950;46.042;14.472;2023-04-01T14:33:50;5.60;;;2.60;;
9821;SDS011;4950;46.042;14.472;2023-04-01T14:36:34;5.22;;;2.30;;
9821;SDS011;4950;46.042;14.472;2023-04-01T14:42:20;11.55;;;2.80;;
9821;SDS011;4950;46.042;14.472;2023-04-01T14:45:02;4.55;;;2.20;;
9821;SDS011;4950;46.042;14.472;2023-04-01T14:47:47;6.73;;;2.50;;
9821;SDS011;4950;46.042;14.472;2023-04-01T14:50:20;4.65;;;2.33;;
9821;SDS011;4950;46.042;14.472;2023-04-01T14:52:56;7.53;;;2.15;;
9821;SDS011;4950;46.042;14.472;2023-04-01T14:55:27;7.32;;;2.15;;
9821;SDS011;4950;46.042;14.472;2023-04-01T14:57:59;8.52;;;2.38;;
9821;SDS011;4950;46.042;14.472;2023-04-01T15:00:40;10.57;;;2.88;;
9821;SDS011;4950;46.042;14.472;2023-04-01T15:03:22;5.18;;;2.20;;
9821;SDS011;4950;46.042;14.472;2023-04-01T15:05:56;6.18;;;2.45;;
9821;SDS011;4950;46.042;14.472;2023-04-01T15:08:44;6.22;;;1.95;;
9821;SDS011;4950;46.042;14.472;2023-04-01T15:11:25;4.70;;;2.35;;
9821;SDS011;4950;46.042;14.472;2023-04-01T15:17:01;4.35;;;2.00;;
9821;SDS011;4950;46.042;14.472;2023-04-01T15:19:41;8.95;;;2.72;;
9821;SDS011;4950;46.042;14.472;2023-04-01T15:22:34;5.40;;;2.10;;
9821;SDS011;4950;46.042;14.472;2023-04-01T15:25:21;4.90;;;2.20;;
9821;SDS011;4950;46.042;14.472;2023-04-01T15:27:59;6.43;;;2.40;;
9821;SDS011;4950;46.042;14.472;2023-04-01T15:30:35;4.00;;;2.25;;
9821;SDS011;4950;46.042;14.472;2023-04-01T15:33:23;5.75;;;2.42;;
9821;SDS011;4950;46.042;14.472;2023-04-01T15:36:15;4.60;;;2.42;;
9821;SDS011;4950;46.042;14.472;2023-04-01T15:38:57;4.97;;;2.05;;
9821;SDS011;4950;46.042;14.472;2023-04-01T15:41:37;68.53;;;6.03;;
9821;SDS011;4950;46.042;14.472;2023-04-01T15:47:03;5.68;;;2.28;;
9821;SDS011;4950;46.042;14.472;2023-04-01T15:49:52;6.47;;;2.33;;
9821;SDS011;4950;46.042;14.472;2023-04-01T15:52:39;6.55;;;2.70;;
9821;SDS011;4950;46.042;14.472;2023-04-01T15:55:17;6.22;;;2.75;;
9821;SDS011;4950;46.042;14.472;2023-04-01T15:57:55;5.32;;;2.50;;
9821;SDS011;4950;46.042;14.472;2023-04-01T16:00:33;4.25;;;2.55;;
9821;SDS011;4950;46.042;14.472;2023-04-01T16:03:15;3.75;;;2.30;;
9821;SDS011;4950;46.042;14.472;2023-04-01T16:05:55;4.80;;;2.60;;
9821;SDS011;4950;46.042;14.472;2023-04-01T16:08:41;7.10;;;2.85;;
9821;SDS011;4950;46.042;14.472;2023-04-01T16:11:27;10.55;;;3.25;;
9821;SDS011;4950;46.042;14.472;2023-04-01T16:14:09;3.53;;;1.60;;
9821;SDS011;4950;46.042;14.472;2023-04-01T16:16:51;4.45;;;2.15;;
9821;SDS011;4950;46.042;14.472;2023-04-01T16:19:32;5.07;;;1.48;;
9821;SDS011;4950;46.042;14.472;2023-04-01T16:22:06;3.45;;;1.30;;
9821;SDS011;4950;46.042;14.472;2023-04-01T16:24:39;4.60;;;1.13;;
9821;SDS011;4950;46.042;14.472;2023-04-01T16:27:12;4.63;;;1.42;;
9821;SDS011;4950;46.042;14.472;2023-04-01T16:29:45;2.13;;;1.23;;
9821;SDS011;4950;46.042;14.472;2023-04-01T16:32:21;2.08;;;1.00;;
9821;SDS011;4950;46.042;14.472;2023-04-01T16:35:01;5.45;;;1.67;;
9821;SDS011;4950;46.042;14.472;2023-04-01T16:37:45;6.10;;;1.80;;
9821;SDS011;4950;46.042;14.472;2023-04-01T16:40:22;8.77;;;3.58;;
9821;SDS011;4950;46.042;14.472;2023-04-01T16:43:04;6.53;;;2.75;;
9821;SDS011;4950;46.042;14.472;2023-04-01T16:45:39;6.95;;;2.42;;
9821;SDS011;4950;46.042;14.472;2023-04-01T16:48:11;6.32;;;2.05;;
9821;SDS011;4950;46.042;14.472;2023-04-01T16:50:41;8.93;;;2.30;;
9821;SDS011;4950;46.042;14.472;2023-04-01T16:53:17;8.80;;;2.50;;
9821;SDS011;4950;46.042;14.472;2023-04-01T16:55:48;5.13;;;1.98;;
9821;SDS011;4950;46.042;14.472;2023-04-01T16:58:18;6.68;;;2.30;;
9821;SDS011;4950;46.042;14.472;2023-04-01T17:00:53;8.60;;;2.08;;
9821;SDS011;4950;46.042;14.472;2023-04-01T17:03:27;8.73;;;2.45;;
9821;SDS011;4950;46.042;14.472;2023-04-01T17:06:03;6.47;;;2.95;;
9821;SDS011;4950;46.042;14.472;2023-04-01T17:08:49;7.60;;;3.13;;
9821;SDS011;4950;46.042;14.472;2023-04-01T17:11:38;6.05;;;2.90;;
9821;SDS011;4950;46.042;14.472;2023-04-01T17:14:13;5.53;;;2.53;;
9821;SDS011;4950;46.042;14.472;2023-04-01T17:16:52;9.80;;;2.95;;
9821;SDS011;4950;46.042;14.472;2023-04-01T17:19:34;8.25;;;2.95;;
9821;SDS011;4950;46.042;14.472;2023-04-01T17:22:15;6.60;;;3.38;;
9821;SDS011;4950;46.042;14.472;2023-04-01T17:24:54;7.78;;;3.10;;
9821;SDS011;4950;46.042;14.472;2023-04-01T17:27:37;6.30;;;2.80;;
9821;SDS011;4950;46.042;14.472;2023-04-01T17:33:06;6.68;;;3.03;;
9821;SDS011;4950;46.042;14.472;2023-04-01T17:35:54;5.97;;;2.35;;
9821;SDS011;4950;46.042;14.472;2023-04-01T17:38:33;5.85;;;2.20;;